Time;durP1;ratioP1;P1;durP2;ratioP2;P2;SDS_P1;SDS_P2;PMS_P1;PMS_P2;Temp;Humidity;BMP_temperature;BMP_pressure;BME280_temperature;BME280_humidity;BME280_pressure;Samples;Min_cycle;Max_cycle;Signal;HPM_P1;HPM_P2
2023/10/23 00:01:34;;;;;;;4.72;2.05;;;6.20;99.90;;;;;;4978979;28;20027;-76
2023/10/23 00:04:00;;;;;;;2.97;1.90;;;6.20;99.90;;;;;;4979176;28;20038;-76
2023/10/23 00:06:26;;;;;;;2.47;1.88;;;6.20;99.90;;;;;;4979030;28;20118;-76
2023/10/23 00:08:51;;;;;;;3.72;1.40;;;6.10;99.90;;;;;;4996478;28;20088;-75
2023/10/23 00:11:28;;;;;;;5.18;2.22;;;6.10;99.90;;;;;;4996681;28;20026;-76
2023/10/23 00:13:54;;;;;;;4.63;1.52;;;6.10;99.90;;;;;;4996580;28;20379;-76
2023/10/23 00:16:20;;;;;;;1.80;1.70;;;6.00;99.90;;;;;;4979164;28;20018;-76
2023/10/23 00:18:46;;;;;;;3.88;1.75;;;6.00;99.90;;;;;;4978950;28;20033;-76
2023/10/23 00:21:12;;;;;;;5.20;2.17;;;5.90;99.90;;;;;;4996524;28;20022;-76
2023/10/23 00:23:38;;;;;;;3.42;1.85;;;5.90;99.90;;;;;;4996297;28;20034;-76
2023/10/23 00:26:05;;;;;;;1.95;1.45;;;5.80;99.90;;;;;;4979181;28;20032;-76
2023/10/23 00:28:32;;;;;;;2.60;1.42;;;5.80;99.90;;;;;;4996384;28;20018;-76
2023/10/23 00:30:58;;;;;;;1.90;1.52;;;5.80;99.90;;;;;;4996296;28;20061;-76
2023/10/23 00:33:25;;;;;;;5.10;1.60;;;5.80;99.90;;;;;;4996993;28;20085;-76
2023/10/23 00:35:51;;;;;;;2.33;1.67;;;5.80;99.90;;;;;;4978738;28;20030;-76
2023/10/23 00:38:17;;;;;;;4.72;2.00;;;5.70;99.90;;;;;;4996386;28;20026;-77
2023/10/23 00:40:42;;;;;;;3.72;1.30;;;5.60;99.90;;;;;;4996396;28;20530;-76
2023/10/23 00:43:18;;;;;;;3.10;1.55;;;5.50;99.90;;;;;;4996818;28;20193;-76
2023/10/23 00:46:14;;;;;;;1.50;1.40;;;5.50;99.90;;;;;;4996807;28;20551;-76
2023/10/23 00:48:41;;;;;;;2.63;1.38;;;5.40;99.90;;;;;;4996934;28;20121;-76
2023/10/23 00:51:10;;;;;;;1.45;1.35;;;5.40;99.90;;;;;;4996962;28;20030;-76
2023/10/23 00:53:38;;;;;;;2.20;1.40;;;5.60;99.90;;;;;;4996359;28;20022;-76
2023/10/23 00:56:06;;;;;;;3.63;1.35;;;5.50;99.90;;;;;;4978185;28;20113;-76
2023/10/23 00:58:33;;;;;;;7.80;1.70;;;5.40;99.90;;;;;;4995744;28;20030;-76
2023/10/23 01:01:03;;;;;;;2.42;1.73;;;5.40;99.90;;;;;;4995248;28;20023;-77
2023/10/23 01:03:29;;;;;;;3.05;1.70;;;5.20;99.90;;;;;;4995299;28;20105;-76
2023/10/23 01:05:54;;;;;;;2.67;1.48;;;5.20;99.90;;;;;;4995740;28;20086;-76
2023/10/23 01:08:21;;;;;;;1.30;1.20;;;5.30;99.90;;;;;;4996325;28;20464;-76
2023/10/23 01:10:47;;;;;;;1.35;1.35;;;5.20;99.90;;;;;;4995812;28;20030;-76
2023/10/23 01:13:13;;;;;;;2.75;1.80;;;5.20;99.90;;;;;;4995754;28;20029;-76
2023/10/23 01:15:39;;;;;;;2.45;1.85;;;5.20;99.90;;;;;;4995163;28;20161;-76
2023/10/23 01:18:05;;;;;;;12.73;2.20;;;5.20;99.90;;;;;;4995386;28;20065;-76
2023/10/23 01:20:32;;;;;;;3.08;1.95;;;5.20;99.90;;;;;;4995882;28;20026;-76
2023/10/23 01:22:59;;;;;;;3.08;2.17;;;5.30;99.90;;;;;;4994989;28;20035;-76
2023/10/23 01:25:25;;;;;;;1.90;1.40;;;5.20;99.90;;;;;;4977992;28;20502;-76
2023/10/23 01:27:51;;;;;;;1.33;1.20;;;5.30;99.90;;;;;;4995699;28;20042;-76
2023/10/23 01:30:17;;;;;;;2.72;1.75;;;5.20;99.90;;;;;;4995670;28;20034;-76
2023/10/23 01:32:42;;;;;;;2.47;1.75;;;5.30;99.90;;;;;;4978015;28;20026;-76
2023/10/23 01:35:10;;;;;;;4.05;2.83;;;5.30;99.90;;;;;;4978238;28;20054;-76
2023/10/23 01:37:35;;;;;;;3.63;2.10;;;5.30;99.90;;;;;;4977671;28;20030;-76
2023/10/23 01:40:02;;;;;;;2.08;1.67;;;5.40;99.90;;;;;;4994835;28;20026;-76
2023/10/23 01:42:30;;;;;;;3.75;1.75;;;5.40;99.90;;;;;;4977346;28;20541;-76
2023/10/23 01:44:57;;;;;;;2.78;1.83;;;5.40;99.90;;;;;;4976978;28;20433;-77
2023/10/23 01:47:23;;;;;;;3.17;1.77;;;5.50;99.90;;;;;;4994141;28;20491;-76
2023/10/23 01:49:49;;;;;;;6.05;1.88;;;5.50;99.90;;;;;;4994511;28;20036;-76
2023/10/23 01:52:16;;;;;;;2.05;1.80;;;5.60;99.90;;;;;;4994710;28;20022;-77
2023/10/23 01:54:41;;;;;;;4.07;2.10;;;5.60;99.90;;;;;;4977159;28;20483;-77
2023/10/23 01:57:07;;;;;;;3.80;1.52;;;5.70;99.90;;;;;;4977155;28;20049;-76
2023/10/23 01:59:33;;;;;;;7.35;1.85;;;5.80;99.90;;;;;;4994574;28;20030;-76
2023/10/23 02:01:58;;;;;;;8.65;1.98;;;5.90;99.90;;;;;;4977891;28;20467;-76
2023/10/23 02:04:25;;;;;;;8.38;2.20;;;6.00;99.90;;;;;;4995361;28;20104;-76
2023/10/23 02:06:51;;;;;;;4.13;1.67;;;6.10;99.90;;;;;;4977268;28;20555;-76
2023/10/23 02:09:16;;;;;;;8.57;2.20;;;6.20;99.90;;;;;;4995150;28;20114;-76
2023/10/23 02:11:42;;;;;;;8.93;2.75;;;6.20;99.90;;;;;;4994919;28;20139;-77
2023/10/23 02:14:08;;;;;;;4.35;2.05;;;6.30;99.90;;;;;;4994931;28;20036;-76
2023/10/23 02:16:34;;;;;;;6.28;2.25;;;6.30;99.90;;;;;;4994738;28;20027;-76
2023/10/23 02:19:00;;;;;;;4.28;1.90;;;6.20;99.90;;;;;;4994825;28;20061;-76
2023/10/23 02:21:25;;;;;;;4.07;1.88;;;6.30;99.90;;;;;;4994652;28;20395;-77
2023/10/23 02:23:51;;;;;;;4.90;1.75;;;6.30;99.90;;;;;;4977747;28;20065;-77
2023/10/23 02:26:18;;;;;;;1.92;1.65;;;6.40;99.90;;;;;;4979713;28;20046;-77
2023/10/23 02:28:44;;;;;;;2.50;1.70;;;6.20;99.90;;;;;;4998819;28;20054;-77
2023/10/23 02:31:09;;;;;;;4.72;1.80;;;6.20;99.90;;;;;;4981233;28;20034;-77
2023/10/23 02:33:36;;;;;;;5.13;1.92;;;6.20;99.90;;;;;;4999416;28;20105;-76
2023/10/23 02:36:02;;;;;;;7.50;2.00;;;6.10;99.90;;;;;;4999357;28;20026;-76
2023/10/23 02:38:28;;;;;;;12.32;3.25;;;6.10;99.90;;;;;;5000301;28;20380;-77
2023/10/23 02:40:54;;;;;;;3.67;2.35;;;6.20;99.90;;;;;;4982321;28;20096;-76
2023/10/23 02:43:20;;;;;;;5.75;3.15;;;6.20;99.90;;;;;;4998643;28;20471;-76
2023/10/23 02:45:47;;;;;;;10.35;3.65;;;6.10;99.90;;;;;;4998627;28;20073;-76
2023/10/23 02:48:13;;;;;;;5.63;2.78;;;6.20;99.90;;;;;;4980830;28;20092;-76
2023/10/23 02:50:38;;;;;;;6.13;2.30;;;6.10;99.90;;;;;;4998348;28;20019;-76
2023/10/23 02:53:06;;;;;;;5.25;1.90;;;6.10;99.90;;;;;;4998679;28;20018;-76
2023/10/23 02:55:32;;;;;;;5.93;3.65;;;6.10;99.90;;;;;;4998573;28;20026;-76
2023/10/23 02:57:58;;;;;;;2.45;1.90;;;6.10;99.90;;;;;;4999257;28;20027;-76
2023/10/23 03:00:24;;;;;;;3.40;2.35;;;6.10;99.90;;;;;;4998784;28;20031;-76
2023/10/23 03:02:50;;;;;;;5.25;2.28;;;6.10;99.90;;;;;;4980504;28;20031;-76
2023/10/23 03:05:16;;;;;;;4.15;2.53;;;6.10;99.90;;;;;;4998035;28;20049;-76
2023/10/23 03:07:42;;;;;;;6.20;2.17;;;6.10;99.90;;;;;;4997847;28;20032;-76
2023/10/23 03:10:09;;;;;;;7.82;2.17;;;6.10;99.90;;;;;;4980484;28;20391;-76
2023/10/23 03:12:35;;;;;;;4.25;2.33;;;6.20;99.90;;;;;;4998164;28;20085;-76
2023/10/23 03:15:02;;;;;;;5.05;3.00;;;6.10;99.90;;;;;;4980513;28;20175;-76
2023/10/23 03:17:28;;;;;;;8.02;2.55;;;6.10;99.90;;;;;;4982243;28;20026;-76
2023/10/23 03:19:54;;;;;;;5.03;2.42;;;6.20;99.90;;;;;;4997362;28;20022;-76
2023/10/23 03:22:20;;;;;;;6.28;2.95;;;6.20;99.90;;;;;;4980136;28;20483;-76
2023/10/23 03:24:45;;;;;;;3.13;2.35;;;6.20;99.90;;;;;;4980032;28;20038;-75
2023/10/23 03:27:11;;;;;;;5.82;2.83;;;6.30;99.90;;;;;;4979832;28;20053;-76
2023/10/23 03:29:36;;;;;;;5.95;3.67;;;6.30;99.90;;;;;;4997692;28;20088;-76
2023/10/23 03:32:03;;;;;;;5.18;2.63;;;6.20;99.90;;;;;;4980456;28;20038;-76
2023/10/23 03:34:29;;;;;;;5.65;2.65;;;6.20;99.90;;;;;;4997942;28;20068;-76
2023/10/23 03:36:56;;;;;;;5.65;3.00;;;6.20;99.90;;;;;;4999854;28;20441;-76
2023/10/23 03:39:21;;;;;;;7.10;3.00;;;6.20;99.90;;;;;;4998206;28;20478;-76
2023/10/23 03:41:47;;;;;;;7.50;4.05;;;6.20;99.90;;;;;;4997998;28;20075;-76
2023/10/23 03:44:12;;;;;;;6.40;2.70;;;6.30;99.90;;;;;;4997414;28;20109;-77
2023/10/23 03:46:38;;;;;;;5.28;3.33;;;6.30;99.90;;;;;;4980061;28;20042;-77
2023/10/23 03:49:04;;;;;;;3.97;2.38;;;6.40;99.90;;;;;;4997854;28;20042;-76
2023/10/23 03:51:29;;;;;;;6.05;2.67;;;6.40;99.90;;;;;;4998910;28;20026;-77
2023/10/23 03:53:55;;;;;;;8.20;2.67;;;6.40;99.90;;;;;;5002160;28;20056;-77
2023/10/23 03:56:20;;;;;;;3.85;2.67;;;6.40;99.90;;;;;;4980837;28;20109;-76
2023/10/23 03:58:46;;;;;;;4.97;2.60;;;6.30;99.90;;;;;;4997790;28;20018;-77
2023/10/23 04:01:12;;;;;;;7.97;2.95;;;6.40;99.90;;;;;;4980385;28;20027;-77
2023/10/23 04:03:38;;;;;;;9.40;2.80;;;6.40;99.90;;;;;;4998159;28;20026;-78
2023/10/23 04:06:04;;;;;;;4.20;2.75;;;6.40;99.90;;;;;;4982024;28;20033;-77
2023/10/23 04:08:30;;;;;;;2.17;2.00;;;6.40;99.90;;;;;;4982506;28;20031;-77
2023/10/23 04:10:56;;;;;;;2.88;2.17;;;6.40;99.90;;;;;;4984099;28;20029;-79
2023/10/23 04:13:22;;;;;;;3.53;2.33;;;6.40;99.90;;;;;;4988595;28;20031;-79
2023/10/23 04:15:52;;;;;;;6.78;2.40;;;6.50;99.90;;;;;;4987563;28;20058;-79
2023/10/23 04:18:18;;;;;;;4.50;2.58;;;6.60;99.90;;;;;;4985543;28;20092;-80
2023/10/23 04:20:44;;;;;;;3.53;2.53;;;6.70;99.90;;;;;;4983993;28;20023;-80
2023/10/23 04:23:10;;;;;;;6.53;2.42;;;6.60;99.90;;;;;;5004925;28;20018;-79
2023/10/23 04:25:35;;;;;;;8.18;2.50;;;6.50;99.90;;;;;;4990260;28;20050;-79
2023/10/23 04:28:01;;;;;;;6.85;2.95;;;6.60;99.90;;;;;;4993172;28;20026;-79
2023/10/23 04:30:27;;;;;;;3.63;2.72;;;6.50;99.90;;;;;;4991121;28;20027;-81
2023/10/23 04:32:52;;;;;;;3.47;2.53;;;6.60;99.90;;;;;;4996734;28;20375;-80
2023/10/23 04:35:18;;;;;;;4.00;2.17;;;6.60;99.90;;;;;;4991094;28;20026;-79
2023/10/23 04:37:44;;;;;;;5.93;3.03;;;6.60;99.90;;;;;;4987764;28;20024;-81
2023/10/23 04:40:10;;;;;;;4.60;2.50;;;6.60;99.90;;;;;;4983732;28;20022;-80
2023/10/23 04:42:35;;;;;;;3.42;2.67;;;6.60;99.90;;;;;;5002552;28;20117;-80
2023/10/23 04:45:01;;;;;;;6.38;2.53;;;6.70;99.90;;;;;;4998554;28;20014;-79
2023/10/23 04:47:26;;;;;;;3.60;2.38;;;6.70;99.90;;;;;;5014014;28;20022;-79
2023/10/23 04:49:52;;;;;;;8.05;2.60;;;6.70;99.90;;;;;;4988879;28;20092;-81
2023/10/23 04:52:18;;;;;;;7.50;2.20;;;6.70;99.90;;;;;;4988759;28;20033;-80
2023/10/23 04:54:43;;;;;;;4.00;2.42;;;6.70;99.90;;;;;;5005143;28;20022;-79
2023/10/23 04:57:09;;;;;;;4.97;2.45;;;6.80;99.90;;;;;;4990593;28;20038;-79
2023/10/23 04:59:35;;;;;;;4.35;2.40;;;6.90;99.90;;;;;;4985905;28;20438;-79
2023/10/23 05:02:02;;;;;;;8.05;2.72;;;6.80;99.90;;;;;;4988597;28;20026;-80
2023/10/23 05:04:30;;;;;;;4.50;2.38;;;6.80;99.90;;;;;;4995565;28;20049;-81
2023/10/23 05:06:59;;;;;;;4.18;2.90;;;6.90;99.90;;;;;;5017119;28;20049;-81
2023/10/23 05:09:26;;;;;;;4.13;3.05;;;6.90;99.90;;;;;;4983292;28;20029;-79
2023/10/23 05:11:53;;;;;;;9.27;2.33;;;7.10;99.90;;;;;;4986769;28;20029;-79
2023/10/23 05:14:19;;;;;;;4.72;2.42;;;7.20;99.90;;;;;;4988425;28;20026;-78
2023/10/23 05:16:45;;;;;;;6.78;3.05;;;7.20;99.90;;;;;;4991254;28;20078;-79
2023/10/23 05:19:10;;;;;;;3.38;2.15;;;7.20;99.90;;;;;;5008847;28;20022;-78
2023/10/23 05:21:37;;;;;;;3.25;2.20;;;7.10;99.90;;;;;;4989257;28;20387;-78
2023/10/23 05:24:03;;;;;;;5.40;2.50;;;7.20;99.90;;;;;;5014242;28;20094;-81
2023/10/23 05:26:31;;;;;;;3.63;2.22;;;7.20;99.90;;;;;;4988889;28;20491;-79
2023/10/23 05:28:57;;;;;;;8.38;2.42;;;7.20;99.90;;;;;;4979346;28;20022;-79
2023/10/23 05:31:23;;;;;;;7.13;3.13;;;7.30;99.90;;;;;;4977232;28;20426;-79
2023/10/23 05:33:51;;;;;;;2.47;2.33;;;7.30;99.90;;;;;;4995455;28;20027;-79
2023/10/23 05:36:17;;;;;;;7.05;2.90;;;7.10;99.90;;;;;;4979823;28;20379;-78
2023/10/23 05:38:43;;;;;;;6.63;2.17;;;7.10;99.90;;;;;;4998188;28;20034;-80
2023/10/23 05:41:09;;;;;;;4.53;2.83;;;7.10;99.90;;;;;;4997961;28;20030;-79
2023/10/23 05:43:35;;;;;;;4.60;2.55;;;7.00;99.90;;;;;;4996098;28;20026;-79
2023/10/23 05:46:05;;;;;;;4.78;2.88;;;7.00;99.90;;;;;;4978734;28;20093;-79
2023/10/23 05:48:31;;;;;;;5.85;2.15;;;7.00;99.90;;;;;;4978786;28;20066;-78
2023/10/23 05:50:58;;;;;;;2.75;1.88;;;6.90;99.90;;;;;;4978921;28;20030;-79
2023/10/23 05:53:24;;;;;;;3.25;2.50;;;7.00;99.90;;;;;;4978862;28;20479;-79
2023/10/23 05:55:49;;;;;;;3.55;2.70;;;7.00;99.90;;;;;;4979035;28;20030;-79
2023/10/23 05:58:15;;;;;;;2.92;2.58;;;7.10;99.90;;;;;;4980015;28;20521;-78
2023/10/23 06:00:40;;;;;;;4.43;2.17;;;7.10;99.90;;;;;;4982902;28;20027;-79
2023/10/23 06:03:06;;;;;;;4.57;2.25;;;7.20;99.90;;;;;;4984938;28;20022;-77
2023/10/23 06:05:32;;;;;;;5.72;3.00;;;7.20;99.90;;;;;;4984462;28;20487;-78
2023/10/23 06:07:57;;;;;;;3.72;2.78;;;7.20;99.90;;;;;;4985080;28;20022;-79
2023/10/23 06:10:23;;;;;;;5.55;2.70;;;7.20;99.90;;;;;;4985405;28;20415;-79
2023/10/23 06:12:48;;;;;;;4.47;2.50;;;7.20;99.90;;;;;;4985179;28;20117;-78
2023/10/23 06:15:14;;;;;;;7.03;2.60;;;7.20;99.90;;;;;;4986071;28;20434;-78
2023/10/23 06:17:40;;;;;;;5.55;2.55;;;7.20;99.90;;;;;;5002982;28;20085;-79
2023/10/23 06:20:06;;;;;;;2.72;2.40;;;7.30;99.90;;;;;;4985216;28;20026;-78
2023/10/23 06:22:33;;;;;;;4.78;2.50;;;7.40;99.90;;;;;;4984600;28;20061;-78
2023/10/23 06:24:58;;;;;;;5.60;2.70;;;7.40;99.90;;;;;;4985238;28;20034;-79
2023/10/23 06:27:24;;;;;;;2.50;2.30;;;7.40;99.90;;;;;;4985153;28;20018;-77
2023/10/23 06:29:50;;;;;;;2.95;2.15;;;7.40;99.90;;;;;;4984388;28;20030;-79
2023/10/23 06:32:18;;;;;;;5.88;3.42;;;7.50;99.90;;;;;;4984649;28;20022;-78
2023/10/23 06:34:43;;;;;;;22.42;3.13;;;7.50;99.90;;;;;;4983877;28;20037;-78
2023/10/23 06:37:10;;;;;;;2.50;2.10;;;7.60;99.90;;;;;;4984683;28;20023;-78
2023/10/23 06:39:35;;;;;;;4.30;2.25;;;7.60;99.90;;;;;;4986218;28;20479;-78
2023/10/23 06:42:04;;;;;;;4.65;2.40;;;7.70;99.90;;;;;;4985410;28;20030;-78
2023/10/23 06:44:30;;;;;;;5.18;2.00;;;7.70;99.90;;;;;;5002811;28;20125;-77
2023/10/23 06:46:55;;;;;;;7.07;3.20;;;7.70;99.90;;;;;;5002773;28;20490;-78
2023/10/23 06:49:22;;;;;;;1.95;1.80;;;7.80;99.90;;;;;;4984868;28;20042;-78
2023/10/23 06:51:48;;;;;;;5.82;2.47;;;7.90;99.90;;;;;;5002343;28;20046;-79
2023/10/23 06:54:13;;;;;;;8.55;2.45;;;7.90;99.90;;;;;;4986371;28;20030;-79
2023/10/23 06:56:39;;;;;;;4.20;2.42;;;8.00;99.90;;;;;;5004800;28;20030;-79
2023/10/23 06:59:05;;;;;;;2.40;2.15;;;8.00;99.90;;;;;;4988386;28;20463;-79
2023/10/23 07:01:30;;;;;;;4.07;2.30;;;8.10;99.90;;;;;;4986105;28;20129;-78
2023/10/23 07:03:56;;;;;;;8.48;2.75;;;8.10;99.90;;;;;;4985640;28;20038;-78
2023/10/23 07:06:21;;;;;;;4.50;3.25;;;8.20;99.90;;;;;;4985783;28;20058;-77
2023/10/23 07:08:47;;;;;;;7.82;3.67;;;8.20;99.90;;;;;;4987964;28;20033;-77
2023/10/23 07:11:18;;;;;;;5.15;3.15;;;8.20;99.90;;;;;;4989124;28;20121;-79
2023/10/23 07:13:44;;;;;;;5.40;3.42;;;8.30;99.90;;;;;;4982338;28;20031;-77
2023/10/23 07:16:10;;;;;;;9.23;4.13;;;8.40;99.90;;;;;;4980984;28;20026;-77
2023/10/23 07:18:35;;;;;;;10.70;3.83;;;8.40;99.90;;;;;;4980619;28;20030;-79
2023/10/23 07:21:01;;;;;;;4.90;2.67;;;8.50;99.90;;;;;;4980432;28;20029;-77
2023/10/23 07:23:29;;;;;;;5.55;2.83;;;8.50;99.90;;;;;;4980198;28;20027;-78
2023/10/23 07:26:08;;;;;;;7.95;3.60;;;8.50;99.90;;;;;;4980234;28;20041;-79
2023/10/23 07:28:36;;;;;;;2.95;2.65;;;8.50;99.90;;;;;;4980338;28;20014;-78
2023/10/23 07:31:02;;;;;;;4.50;3.72;;;8.50;99.90;;;;;;4997922;28;20058;-78
2023/10/23 07:33:28;;;;;;;10.70;3.78;;;8.50;99.90;;;;;;4980055;28;20436;-77
2023/10/23 07:36:10;;;;;;;9.52;3.72;;;8.60;99.90;;;;;;4981003;28;20057;-78
2023/10/23 07:38:37;;;;;;;7.28;4.82;;;8.60;99.90;;;;;;4998822;28;20542;-78
2023/10/23 07:41:03;;;;;;;7.80;3.63;;;8.70;99.90;;;;;;4980222;28;20117;-78
2023/10/23 07:43:29;;;;;;;4.53;3.67;;;8.80;99.90;;;;;;4980674;28;20054;-77
2023/10/23 07:45:55;;;;;;;6.20;3.85;;;8.80;99.90;;;;;;4997146;28;20109;-78
2023/10/23 07:48:23;;;;;;;9.18;4.25;;;8.90;99.90;;;;;;4999405;28;20577;-79
2023/10/23 07:50:48;;;;;;;4.70;3.72;;;9.10;99.90;;;;;;4979728;28;20034;-78
2023/10/23 07:53:14;;;;;;;13.98;4.43;;;9.20;99.90;;;;;;4998872;28;20364;-78
2023/10/23 07:55:40;;;;;;;11.05;5.80;;;9.40;99.90;;;;;;5012416;28;20052;-79
2023/10/23 07:58:05;;;;;;;12.98;7.53;;;9.40;99.90;;;;;;4982538;28;20023;-77
2023/10/23 08:00:31;;;;;;;8.20;5.78;;;9.50;99.90;;;;;;4987335;28;20023;-79
2023/10/23 08:02:57;;;;;;;10.25;5.45;;;9.70;99.90;;;;;;4987779;28;20030;-78
2023/10/23 08:05:23;;;;;;;4.63;3.78;;;9.90;99.90;;;;;;4994544;28;20038;-79
2023/10/23 08:07:49;;;;;;;5.28;3.47;;;10.00;99.90;;;;;;4990529;28;20328;-79
2023/10/23 08:10:15;;;;;;;7.95;4.35;;;10.10;99.90;;;;;;4993126;28;20133;-80
2023/10/23 08:12:40;;;;;;;6.57;3.40;;;10.30;99.90;;;;;;5006994;28;20456;-79
2023/10/23 08:15:07;;;;;;;8.23;4.60;;;10.40;99.90;;;;;;4989560;28;20022;-79
2023/10/23 08:17:33;;;;;;;5.10;3.05;;;10.40;99.90;;;;;;5003058;28;20030;-78
2023/10/23 08:19:59;;;;;;;5.93;3.38;;;10.40;99.90;;;;;;4982006;28;20022;-78
2023/10/23 08:22:24;;;;;;;4.93;3.15;;;10.40;99.90;;;;;;4982921;28;20128;-78
2023/10/23 08:24:50;;;;;;;4.25;2.72;;;10.40;99.90;;;;;;4985966;28;20057;-78
2023/10/23 08:27:16;;;;;;;5.85;2.60;;;10.40;99.90;;;;;;5004590;28;20053;-77
2023/10/23 08:29:41;;;;;;;4.03;2.70;;;10.30;99.90;;;;;;5003286;28;20595;-78
2023/10/23 08:32:07;;;;;;;6.07;2.70;;;10.30;99.90;;;;;;5004535;28;20045;-78
2023/10/23 08:34:33;;;;;;;4.20;2.80;;;10.20;99.90;;;;;;4986188;28;20038;-81
2023/10/23 08:36:58;;;;;;;7.75;3.28;;;10.20;99.90;;;;;;5002034;28;20025;-79
2023/10/23 08:39:25;;;;;;;4.97;3.17;;;10.10;99.90;;;;;;5008011;28;20027;-77
2023/10/23 08:41:51;;;;;;;6.85;3.97;;;10.10;99.90;;;;;;4991243;28;20089;-79
2023/10/23 08:44:17;;;;;;;9.80;3.30;;;10.00;99.90;;;;;;4990570;28;20528;-78
2023/10/23 08:46:43;;;;;;;5.43;3.20;;;10.30;99.90;;;;;;5006439;28;20022;-78
2023/10/23 08:49:09;;;;;;;6.38;3.80;;;9.80;99.90;;;;;;4985840;28;20053;-78
2023/10/23 08:51:38;;;;;;;8.00;4.28;;;9.60;99.90;;;;;;5005648;28;20022;-77
2023/10/23 08:54:18;;;;;;;4.43;3.80;;;9.50;99.90;;;;;;5004263;28;20494;-78
2023/10/23 08:56:44;;;;;;;;;;;9.60;99.90;;;;;;5005306;28;20365;-79
2023/10/23 08:59:12;;;;;;;5.45;4.07;;;9.60;99.90;;;;;;4986863;28;19908;-78
2023/10/23 09:01:38;;;;;;;5.40;3.88;;;9.60;99.90;;;;;;4986296;28;20032;-78
2023/10/23 09:04:05;;;;;;;22.05;5.22;;;9.60;99.90;;;;;;4987701;28;20045;-78
2023/10/23 09:06:30;;;;;;;6.65;4.43;;;9.70;99.90;;;;;;4985848;28;20034;-78
2023/10/23 09:08:56;;;;;;;9.13;5.30;;;9.60;99.90;;;;;;5004955;28;20183;-78
2023/10/23 09:11:37;;;;;;;10.88;5.55;;;9.50;99.90;;;;;;4987361;28;20023;-79
2023/10/23 09:14:03;;;;;;;15.20;6.25;;;9.60;99.90;;;;;;5003278;28;20386;-77
2023/10/23 09:16:28;;;;;;;12.52;5.78;;;9.70;99.90;;;;;;4984759;28;20025;-78
2023/10/23 09:18:55;;;;;;;12.15;4.65;;;9.80;99.90;;;;;;5005459;28;20026;-78
2023/10/23 09:21:21;;;;;;;10.45;5.93;;;9.70;99.90;;;;;;4988484;28;20154;-78
2023/10/23 09:23:56;;;;;;;7.15;5.10;;;9.70;99.90;;;;;;4987909;28;20026;-77
2023/10/23 09:26:22;;;;;;;7.18;4.55;;;9.60;99.90;;;;;;4985382;28;20026;-78
2023/10/23 09:28:55;;;;;;;10.07;6.22;;;9.40;99.90;;;;;;4980835;28;20368;-78
2023/10/23 09:31:21;;;;;;;8.32;4.22;;;9.30;99.90;;;;;;4980198;28;20026;-78
2023/10/23 09:33:49;;;;;;;12.80;4.90;;;9.30;99.90;;;;;;4980587;28;20031;-78
2023/10/23 09:36:16;;;;;;;11.13;4.38;;;9.30;99.90;;;;;;4978706;28;20030;-78
2023/10/23 09:38:43;;;;;;;10.32;4.68;;;9.20;99.90;;;;;;4978615;28;20026;-79
2023/10/23 09:41:10;;;;;;;10.30;5.10;;;9.20;99.90;;;;;;4980484;28;20501;-78
2023/10/23 09:43:45;;;;;;;10.90;5.38;;;9.20;99.90;;;;;;5000638;28;20386;-78
2023/10/23 09:46:13;;;;;;;7.65;5.35;;;9.30;99.90;;;;;;5003102;28;20089;-78
2023/10/23 09:48:44;;;;;;;8.95;5.50;;;9.40;99.90;;;;;;4987488;28;20113;-78
2023/10/23 09:51:16;;;;;;;14.95;6.38;;;9.50;99.90;;;;;;5002440;28;20069;-79
2023/10/23 09:53:49;;;;;;;9.38;5.20;;;9.50;99.90;;;;;;4982114;28;20030;-78
2023/10/23 09:56:20;;;;;;;13.18;7.25;;;9.70;99.90;;;;;;4999272;28;20054;-80
2023/10/23 09:58:51;;;;;;;19.88;8.70;;;9.80;99.90;;;;;;4982046;28;20022;-78
2023/10/23 10:01:18;;;;;;;11.18;6.28;;;10.00;99.90;;;;;;4977860;28;20030;-79
2023/10/23 10:03:47;;;;;;;19.73;8.27;;;10.10;99.90;;;;;;4977648;28;20022;-79
2023/10/23 10:06:17;;;;;;;8.48;5.53;;;10.20;99.90;;;;;;4995381;28;20035;-79
2023/10/23 10:08:46;;;;;;;;;;;10.30;99.90;;;;;;4981303;28;20026;-78
2023/10/23 10:11:13;;;;;;;;;;;10.40;99.90;;;;;;5001196;28;19980;-78
2023/10/23 10:13:39;;;;;;;21.35;11.80;;;10.40;99.90;;;;;;4979383;28;19917;-79
2023/10/23 10:16:06;;;;;;;10.18;5.72;;;10.40;99.90;;;;;;4995851;28;20030;-78
2023/10/23 10:18:34;;;;;;;14.43;7.35;;;10.40;99.90;;;;;;4997326;28;20027;-79
2023/10/23 10:21:04;;;;;;;10.40;5.03;;;10.50;99.90;;;;;;4978992;28;20160;-78
2023/10/23 10:23:31;;;;;;;14.30;5.57;;;10.50;99.90;;;;;;4976978;28;20065;-79
2023/10/23 10:25:57;;;;;;;15.15;7.15;;;10.60;99.90;;;;;;4999087;28;20042;-78
2023/10/23 10:28:27;;;;;;;10.60;5.70;;;10.50;99.90;;;;;;4995768;28;20029;-78
2023/10/23 10:30:54;;;;;;;10.35;5.95;;;10.60;99.90;;;;;;4979016;28;20080;-78
2023/10/23 10:33:30;;;;;;;14.85;6.35;;;10.40;99.90;;;;;;4995073;28;20019;-78
2023/10/23 10:36:00;;;;;;;8.02;6.18;;;10.00;99.90;;;;;;4995394;28;20033;-78
2023/10/23 10:38:29;;;;;;;13.63;7.05;;;9.80;99.90;;;;;;4980229;28;20035;-79
2023/10/23 10:41:16;;;;;;;14.60;9.63;;;9.70;99.90;;;;;;4981572;28;20026;-79
2023/10/23 10:43:44;;;;;;;8.43;6.55;;;9.80;99.90;;;;;;4983954;28;20034;-80
2023/10/23 10:46:20;;;;;;;23.70;13.63;;;9.80;99.90;;;;;;4985453;28;20050;-80
2023/10/23 10:48:48;;;;;;;9.98;6.57;;;10.00;99.90;;;;;;5003933;28;20065;-79
2023/10/23 10:51:20;;;;;;;12.68;6.88;;;10.20;99.90;;;;;;5003059;28;20022;-79
2023/10/23 10:53:46;;;;;;;7.82;5.90;;;10.30;99.90;;;;;;4983296;28;20545;-79
2023/10/23 10:56:12;;;;;;;8.40;6.28;;;10.40;99.90;;;;;;4985296;28;20011;-79
2023/10/23 10:58:42;;;;;;;9.40;5.80;;;10.20;99.90;;;;;;4986969;28;20112;-79
2023/10/23 11:01:08;;;;;;;10.88;6.78;;;10.10;99.90;;;;;;4982154;28;20494;-80
2023/10/23 11:03:36;;;;;;;52.30;23.15;;;10.20;99.90;;;;;;4982778;28;20034;-79
2023/10/23 11:06:02;;;;;;;20.95;10.35;;;10.40;99.90;;;;;;5000212;28;20121;-79
2023/10/23 11:08:28;;;;;;;17.50;8.32;;;10.50;99.90;;;;;;5003191;28;20029;-79
2023/10/23 11:10:56;;;;;;;12.10;7.57;;;10.70;99.90;;;;;;4983144;28;20026;-79
2023/10/23 11:13:22;;;;;;;13.52;6.10;;;10.80;99.90;;;;;;4986068;28;20030;-77
2023/10/23 11:15:48;;;;;;;9.68;6.68;;;10.80;99.90;;;;;;4984371;28;20022;-80
2023/10/23 11:18:16;;;;;;;12.05;7.03;;;10.90;99.90;;;;;;4986664;28;20026;-80
2023/10/23 11:20:42;;;;;;;13.13;6.97;;;10.90;99.90;;;;;;4994169;28;20027;-79
2023/10/23 11:23:12;;;;;;;21.90;11.40;;;10.80;99.90;;;;;;5004495;28;20038;-79
2023/10/23 11:25:38;;;;;;;12.05;6.10;;;10.80;99.90;;;;;;4998012;28;20125;-79
2023/10/23 11:28:07;;;;;;;14.90;9.20;;;10.90;99.90;;;;;;4963873;28;20061;-79
2023/10/23 11:30:45;;;;;;;14.87;9.63;;;11.20;99.90;;;;;;4982088;28;20037;-79
2023/10/23 11:33:11;;;;;;;16.27;8.32;;;11.40;99.90;;;;;;4988970;28;20029;-81
2023/10/23 11:35:37;;;;;;;11.57;6.85;;;11.50;99.90;;;;;;5001530;28;20035;-80
2023/10/23 11:38:03;;;;;;;10.25;7.40;;;11.30;99.90;;;;;;4986924;28;20037;-80
2023/10/23 11:40:33;;;;;;;9.20;7.38;;;11.30;99.90;;;;;;4984968;28;20483;-79
2023/10/23 11:42:58;;;;;;;11.90;8.15;;;11.10;99.90;;;;;;4999441;28;20029;-79
2023/10/23 11:45:24;;;;;;;18.30;9.35;;;11.10;99.90;;;;;;5003699;28;20090;-82
2023/10/23 11:47:54;;;;;;;14.00;7.13;;;11.30;99.90;;;;;;4986839;28;20022;-79
2023/10/23 11:50:21;;;;;;;10.18;7.40;;;11.60;99.90;;;;;;4987656;28;20065;-79
2023/10/23 11:52:49;;;;;;;10.80;7.60;;;11.50;99.90;;;;;;4986644;28;20049;-80
2023/10/23 11:55:16;;;;;;;11.57;7.32;;;11.60;99.90;;;;;;4981089;28;20027;-78
2023/10/23 11:57:50;;;;;;;11.60;7.10;;;11.50;99.90;;;;;;4996515;28;20077;-78
2023/10/23 12:00:17;;;;;;;10.68;6.65;;;11.50;99.90;;;;;;4999785;28;20107;-77
2023/10/23 12:02:45;;;;;;;10.23;6.25;;;11.60;99.90;;;;;;4979501;28;20084;-80
2023/10/23 12:05:12;;;;;;;11.50;7.47;;;11.70;99.90;;;;;;4980390;28;20483;-79
2023/10/23 12:07:46;;;;;;;12.35;6.88;;;11.70;99.90;;;;;;5000020;28;20093;-78
2023/10/23 12:10:41;;;;;;;10.52;6.38;;;11.90;99.90;;;;;;5004229;28;20033;-79
2023/10/23 12:13:07;;;;;;;9.77;7.07;;;11.70;99.90;;;;;;4990756;28;20467;-79
2023/10/23 12:15:32;;;;;;;13.63;6.45;;;11.40;99.90;;;;;;4985169;28;20074;-80
2023/10/23 12:18:03;;;;;;;6.65;5.80;;;11.30;99.90;;;;;;5005431;28;20093;-80
2023/10/23 12:20:29;;;;;;;10.75;5.85;;;11.20;99.90;;;;;;4992655;28;20026;-79
2023/10/23 12:22:55;;;;;;;9.57;5.60;;;11.10;99.90;;;;;;5008410;28;20097;-81
2023/10/23 12:25:21;;;;;;;10.60;5.93;;;11.10;99.90;;;;;;4992662;28;20037;-80
2023/10/23 12:27:47;;;;;;;8.45;5.18;;;11.10;99.90;;;;;;4990513;28;20031;-81
2023/10/23 12:30:17;;;;;;;9.07;5.88;;;11.20;99.90;;;;;;4992849;28;20030;-81
2023/10/23 12:32:42;;;;;;;7.22;5.03;;;11.20;99.90;;;;;;4987246;28;20502;-79
2023/10/23 12:35:09;;;;;;;10.45;5.60;;;11.20;99.90;;;;;;4986444;28;20038;-79
2023/10/23 12:37:37;;;;;;;9.10;4.88;;;11.30;99.90;;;;;;4987906;28;20022;-80
2023/10/23 12:40:08;;;;;;;7.18;4.85;;;11.30;99.90;;;;;;4989567;28;20117;-77
2023/10/23 12:42:34;;;;;;;9.52;5.10;;;11.30;99.90;;;;;;5004877;28;20022;-79
2023/10/23 12:45:00;;;;;;;8.35;4.75;;;11.30;99.90;;;;;;4985460;28;20061;-79
2023/10/23 12:47:25;;;;;;;6.82;4.88;;;11.40;99.90;;;;;;4982205;28;20484;-80
2023/10/23 12:49:51;;;;;;;7.15;4.32;;;11.70;99.90;;;;;;5119716;23;20066;-80
2023/10/23 12:52:18;;;;;;;6.97;4.30;;;11.80;99.90;;;;;;5009275;28;20026;-83